Latest Weather Observations for Banana Bank

IDQ60801

Issued at 10:02 am EST Monday 26 January 2015 (issued every 30 minutes, with the page automatically refreshed every 10 minutes)

About weather observations | Map of weather stations | Latest weather observations for QLD | Other Formats
Station Details ID: 040925 Name: BANANA BANK NORTH BEACON Lat: -27.53 Lon: 153.33 Height: 7.0 m
Data from the previous 72 hours. | See also: Recent months for locations in Queensland
Date/Time
EST
Temp
°C
App
Temp
°C
Dew
Point
Rel
Hum
%
Delta-T
°C
Wind Press
QNH
hPa
Press
MSL
hPa
Rain
since 9 am
mm
Dir
 
Spd
km/h
Gust
km/h
Spd
kts
Gust
kts
26/10:00am - - - - - SE 19 22 10 12 - - -
26/09:30am - - - - - SE 17 20 9 11 - - -
26/09:00am - - - - - SE 15 17 8 9 - - -
26/08:30am - - - - - SSE 6 6 3 3 - - -
26/08:00am - - - - - SSE 7 9 4 5 - - -
26/07:30am - - - - - SSE 7 9 4 5 - - -
26/07:00am - - - - - SSE 7 9 4 5 - - -
26/06:30am - - - - - SSE 9 11 5 6 - - -
26/06:00am - - - - - S 13 15 7 8 - - -
26/05:30am - - - - - S 13 15 7 8 - - -
26/05:00am - - - - - S 15 19 8 10 - - -
26/04:30am - - - - - S 15 17 8 9 - - -
26/04:00am - - - - - S 13 15 7 8 - - -
26/03:30am - - - - - ESE 4 6 2 3 - - -
26/03:00am - - - - - ENE 4 4 2 2 - - -
26/02:30am - - - - - CALM 0 2 0 1 - - -
26/02:00am - - - - - ESE 6 6 3 3 - - -
26/01:30am - - - - - ESE 7 9 4 5 - - -
26/01:00am - - - - - SE 9 11 5 6 - - -
26/12:30am - - - - - CALM 0 0 0 0 - - -
26/12:00am - - - - - CALM 0 0 0 0 - - -
 
Date/Time
EST
Temp
°C
App
Temp
°C
Dew
Point
Rel
Hum
%
Delta-T
°C
Wind Press
QNH
hPa
Press
MSL
hPa
Rain
since 9 am
mm
Dir
 
Spd
km/h
Gust
km/h
Spd
kts
Gust
kts
25/11:30pm - - - - - NE 4 6 2 3 - - -
25/11:00pm - - - - - NNE 6 7 3 4 - - -
25/10:30pm - - - - - NNE 11 13 6 7 - - -
25/10:00pm - - - - - ESE 2 6 1 3 - - -
25/09:30pm - - - - - S 19 22 10 12 - - -
25/09:00pm - - - - - NNE 4 6 2 3 - - -
25/08:30pm - - - - - NNE 7 9 4 5 - - -
25/08:00pm - - - - - NNE 11 13 6 7 - - -
25/07:30pm - - - - - N 15 17 8 9 - - -
25/07:00pm - - - - - NNE 17 20 9 11 - - -
25/06:30pm - - - - - NNE 17 22 9 12 - - -
25/06:00pm - - - - - NE 20 26 11 14 - - -
25/05:30pm - - - - - NNE 24 30 13 16 - - -
25/05:00pm - - - - - NNE 22 26 12 14 - - -
25/04:30pm - - - - - NNE 19 24 10 13 - - -
25/04:00pm - - - - - NNE 20 26 11 14 - - -
25/03:30pm - - - - - N 19 22 10 12 - - -
25/03:00pm - - - - - N 19 20 10 11 - - -
25/02:30pm - - - - - NE 17 20 9 11 - - -
25/02:00pm - - - - - NE 11 15 6 8 - - -
25/01:30pm - - - - - NNE 9 15 5 8 - - -
25/01:00pm - - - - - N 15 17 8 9 - - -
25/12:30pm - - - - - N 17 20 9 11 - - -
25/12:00pm - - - - - N 15 17 8 9 - - -
25/11:30am - - - - - N 19 20 10 11 - - -
25/11:00am - - - - - N 19 22 10 12 - - -
25/10:30am - - - - - N 19 22 10 12 - - -
25/10:00am - - - - - N 20 22 11 12 - - -
25/09:30am - - - - - N 13 17 7 9 - - -
25/09:00am - - - - - N 13 15 7 8 - - -
25/08:30am - - - - - NNW 7 9 4 5 - - -
25/08:00am - - - - - NNW 7 9 4 5 - - -
25/07:30am - - - - - NW 7 9 4 5 - - -
25/07:00am - - - - - WNW 6 7 3 4 - - -
25/06:30am - - - - - WNW 7 9 4 5 - - -
25/06:00am - - - - - WNW 7 9 4 5 - - -
25/05:30am - - - - - WNW 9 11 5 6 - - -
25/05:00am - - - - - NW 13 17 7 9 - - -
25/04:30am - - - - - WNW 13 17 7 9 - - -
25/04:00am - - - - - NW 17 20 9 11 - - -
25/03:30am - - - - - NW 19 22 10 12 - - -
25/03:00am - - - - - NW 17 19 9 10 - - -
25/02:30am - - - - - NW 15 17 8 9 - - -
25/02:00am - - - - - WNW 11 13 6 7 - - -
25/01:30am - - - - - WNW 9 11 5 6 - - -
25/01:00am - - - - - WNW 7 9 4 5 - - -
25/12:30am - - - - - NW 9 9 5 5 - - -
25/12:00am - - - - - WNW 6 6 3 3 - - -
 
Date/Time
EST
Temp
°C
App
Temp
°C
Dew
Point
Rel
Hum
%
Delta-T
°C
Wind Press
QNH
hPa
Press
MSL
hPa
Rain
since 9 am
mm
Dir
 
Spd
km/h
Gust
km/h
Spd
kts
Gust
kts
24/11:30pm - - - - - WSW 4 6 2 3 - - -
24/11:00pm - - - - - W 7 9 4 5 - - -
24/10:30pm - - - - - CALM 0 0 0 0 - - -
24/10:00pm - - - - - N 2 4 1 2 - - -
24/09:30pm - - - - - NNE 4 7 2 4 - - -
24/09:00pm - - - - - ESE 4 6 2 3 - - -
24/08:30pm - - - - - SE 7 11 4 6 - - -
24/08:00pm - - - - - ESE 9 11 5 6 - - -
24/07:30pm - - - - - ESE 11 15 6 8 - - -
24/07:00pm - - - - - ESE 13 15 7 8 - - -
24/06:30pm - - - - - ESE 15 19 8 10 - - -
24/06:00pm - - - - - ESE 15 20 8 11 - - -
24/05:30pm - - - - - SE 19 22 10 12 - - -
24/05:00pm - - - - - SE 20 24 11 13 - - -
24/04:30pm - - - - - SE 19 24 10 13 - - -
24/04:00pm - - - - - SE 20 24 11 13 - - -
24/03:30pm - - - - - SE 20 24 11 13 - - -
24/03:00pm - - - - - SE 20 24 11 13 - - -
24/02:30pm - - - - - SE 20 24 11 13 - - -
24/02:00pm - - - - - SE 20 26 11 14 - - -
24/01:30pm - - - - - SE 19 22 10 12 - - -
24/01:00pm - - - - - SE 20 24 11 13 - - -
24/12:30pm - - - - - SE 20 24 11 13 - - -
24/12:00pm - - - - - SSE 20 26 11 14 - - -
24/11:30am - - - - - SSE 22 30 12 16 - - -
24/11:00am - - - - - SSE 22 26 12 14 - - -
24/10:30am - - - - - SSE 28 33 15 18 - - -
24/10:00am - - - - - SSE 22 28 12 15 - - -
24/09:30am - - - - - S 20 26 11 14 - - -
24/09:00am - - - - - S 22 28 12 15 - - -
24/08:30am - - - - - S 26 32 14 17 - - -
24/08:00am - - - - - S 19 24 10 13 - - -
24/07:30am - - - - - S 17 19 9 10 - - -
24/07:00am - - - - - SSE 22 30 12 16 - - -
24/06:30am - - - - - S 22 28 12 15 - - -
24/06:00am - - - - - SSW 24 30 13 16 - - -
24/05:30am - - - - - SSW 20 28 11 15 - - -
24/05:00am - - - - - SSE 17 28 9 15 - - -
24/04:30am - - - - - S 15 19 8 10 - - -
24/04:00am - - - - - SSW 17 28 9 15 - - -
24/03:30am - - - - - SE 24 32 13 17 - - -
24/03:00am - - - - - SE 24 30 13 16 - - -
24/02:30am - - - - - ESE 20 30 11 16 - - -
24/02:00am - - - - - SE 22 28 12 15 - - -
24/01:30am - - - - - SE 24 30 13 16 - - -
24/01:00am - - - - - ESE 26 33 14 18 - - -
24/12:30am - - - - - SE 28 35 15 19 - - -
24/12:00am - - - - - SE 32 39 17 21 - - -
 
Date/Time
EST
Temp
°C
App
Temp
°C
Dew
Point
Rel
Hum
%
Delta-T
°C
Wind Press
QNH
hPa
Press
MSL
hPa
Rain
since 9 am
mm
Dir
 
Spd
km/h
Gust
km/h
Spd
kts
Gust
kts
23/11:30pm - - - - - ESE 35 43 19 23 - - -
23/11:00pm - - - - - ESE 28 39 15 21 - - -
23/10:30pm - - - - - SE 39 48 21 26 - - -
23/10:00pm - - - - - SE 43 54 23 29 - - -
23/09:30pm - - - - - SSE 44 52 24 28 - - -
23/09:00pm - - - - - SSE 35 43 19 23 - - -
23/08:30pm - - - - - S 41 50 22 27 - - -
23/08:00pm - - - - - S 41 50 22 27 - - -
23/07:30pm - - - - - S 43 50 23 27 - - -
23/07:00pm - - - - - S 37 48 20 26 - - -
23/06:30pm - - - - - S 39 48 21 26 - - -
23/06:00pm - - - - - SSE 44 63 24 34 - - -
23/05:30pm - - - - - SSE 41 54 22 29 - - -
23/05:00pm - - - - - S 39 48 21 26 - - -
23/04:30pm - - - - - SSE 32 37 17 20 - - -
23/04:00pm - - - - - SSE 28 32 15 17 - - -
23/03:30pm - - - - - SSE 24 30 13 16 - - -
23/03:00pm - - - - - SSE 22 26 12 14 - - -
23/02:30pm - - - - - SSE 22 26 12 14 - - -
23/02:00pm - - - - - SE 19 22 10 12 - - -
23/01:30pm - - - - - ESE 20 28 11 15 - - -
23/01:00pm - - - - - SE 22 30 12 16 - - -
23/12:30pm - - - - - ESE 17 22 9 12 - - -
23/12:00pm - - - - - E 17 22 9 12 - - -
23/11:30am - - - - - ESE 22 32 12 17 - - -
23/11:00am - - - - - ENE 20 28 11 15 - - -
23/10:30am - - - - - NE 17 20 9 11 - - -

Other Formats:

Comma delimited format used in spreadsheet applications
http://www.bom.gov.au/fwo/IDQ60801/IDQ60801.94591.axf

JavaScript Object Notation format (JSON) in row-major order
http://www.bom.gov.au/fwo/IDQ60801/IDQ60801.94591.json